Preview of NWS' New Version of Forecast
This preview is not operational and should not be used for support decisions.

Terminal Aerodrome Forecast (TAF)

Issued by National Weather Service (NWS)

                            
000
FTUS42 KMFL 231733
TAFMIA
TAF
KMIA 231733Z 2318/2424 13020KT P6SM BKN050
     FM241100 13015KT P6SM BKN045 PROB30 2412/2418 TSRA BKN035CB=